Time;durP1;ratioP1;P1;durP2;ratioP2;P2;SDS_P1;SDS_P2;PMS_P1;PMS_P2;Temp;Humidity;BMP_temperature;BMP_pressure;BME280_temperature;BME280_humidity;BME280_pressure;Samples;Min_cycle;Max_cycle;Signal;HPM_P1;HPM_P2
2023/01/21 00:01:15;;;;;;;26.85;12.88;;;;;;;0.41;99.73;100318.41;1730580;82;25611;-45
2023/01/21 00:03:42;;;;;;;26.95;13.28;;;;;;;0.41;99.72;100319.75;1730680;82;25613;-46
2023/01/21 00:06:09;;;;;;;21.87;12.23;;;;;;;0.41;99.72;100319.75;1730628;82;25400;-45
2023/01/21 00:08:36;;;;;;;21.68;12.03;;;;;;;0.42;99.64;100324.53;1730581;82;29435;-44
2023/01/21 00:11:14;;;;;;;21.52;11.70;;;;;;;0.41;99.63;100324.24;1730589;82;25587;-44
2023/01/21 00:13:43;;;;;;;20.92;10.05;;;;;;;0.42;99.67;100319.22;1730721;82;25579;-45
2023/01/21 00:16:12;;;;;;;18.35;10.65;;;;;;;0.43;99.63;100330.16;1708041;82;25912;-45
2023/01/21 00:18:40;;;;;;;21.35;10.18;;;;;;;0.41;99.59;100326.91;1707982;82;25489;-45
2023/01/21 00:21:06;;;;;;;18.12;9.43;;;;;;;0.42;99.55;100317.88;1730630;82;27390;-44
2023/01/21 00:23:33;;;;;;;14.90;9.33;;;;;;;0.43;99.43;100331.48;1730537;82;25567;-46
2023/01/21 00:26:04;;;;;;;17.25;9.25;;;;;;;0.43;99.44;100325.63;1730522;82;25678;-43
2023/01/21 00:28:35;;;;;;;16.50;9.18;;;;;;;0.43;99.36;100332.28;1730625;82;25631;-44
2023/01/21 00:31:06;;;;;;;15.18;9.18;;;;;;;0.43;99.27;100325.63;1707908;82;25643;-44
2023/01/21 00:33:35;;;;;;;15.72;8.78;;;;;;;0.45;99.30;100328.85;1730669;82;27877;-44
2023/01/21 00:36:10;;;;;;;17.35;9.03;;;;;;;0.47;99.28;100318.77;1730574;82;25626;-44
2023/01/21 00:38:38;;;;;;;17.07;8.90;;;;;;;0.46;99.14;100313.18;1730624;82;25437;-45
2023/01/21 00:41:12;;;;;;;14.70;8.60;;;;;;;0.47;99.15;100308.12;1730596;82;25785;-45
2023/01/21 00:43:43;;;;;;;17.02;8.90;;;;;;;0.47;99.09;100304.66;1730713;82;25635;-44
2023/01/21 00:46:11;;;;;;;15.40;9.03;;;;;;;0.47;98.96;100303.33;1730343;82;27415;-45
2023/01/21 00:48:37;;;;;;;15.05;8.35;;;;;;;0.48;98.94;100301.77;1740251;82;25582;-45
2023/01/21 00:51:06;;;;;;;13.45;7.95;;;;;;;0.48;98.91;100303.62;1741442;82;25523;-45
2023/01/21 00:53:37;;;;;;;12.70;8.10;;;;;;;0.48;98.82;100300.43;1741483;82;25658;-45
2023/01/21 00:56:07;;;;;;;11.53;8.00;;;;;;;0.46;98.73;100299.05;1741468;82;25460;-42
2023/01/21 00:58:35;;;;;;;10.63;7.25;;;;;;;0.46;98.71;100293.22;1741391;82;27901;-44
2023/01/21 01:01:12;;;;;;;13.03;7.40;;;;;;;0.47;98.78;100287.36;1713746;82;25767;-44
2023/01/21 01:03:42;;;;;;;10.63;7.15;;;;;;;0.47;98.73;100290.02;1733891;82;25594;-45
2023/01/21 01:06:17;;;;;;;;;;;;;;;0.47;98.70;100281.50;1743849;82;25978;-46
2023/01/21 01:08:46;;;;;;;10.55;6.75;;;;;;;0.47;98.70;100282.04;1741428;82;25548;-46
2023/01/21 01:11:15;;;;;;;10.58;6.80;;;;;;;0.47;98.68;100279.38;1741275;82;27384;-44
2023/01/21 01:13:43;;;;;;;11.40;6.95;;;;;;;0.47;98.61;100266.87;1741309;82;25404;-47
2023/01/21 01:16:13;;;;;;;11.25;6.65;;;;;;;0.47;98.69;100265.53;1713894;82;25654;-45
2023/01/21 01:18:41;;;;;;;12.15;6.80;;;;;;;0.47;98.72;100264.73;1741281;82;25668;-44
2023/01/21 01:21:12;;;;;;;10.38;6.70;;;;;;;0.45;98.61;100270.30;1741282;82;25475;-43
2023/01/21 01:23:38;;;;;;;10.68;6.53;;;;;;;0.41;98.65;100263.86;1741311;82;27380;-45
2023/01/21 01:26:12;;;;;;;10.23;6.87;;;;;;;0.40;98.85;100268.09;1741136;82;25691;-44
2023/01/21 01:28:39;;;;;;;8.43;5.45;;;;;;;0.36;98.94;100264.58;1741256;82;25464;-46
2023/01/21 01:31:10;;;;;;;9.93;6.20;;;;;;;0.31;98.94;100259.17;1741223;82;25742;-43
2023/01/21 01:33:36;;;;;;;10.08;6.25;;;;;;;0.28;99.12;100266.30;1741429;82;25411;-44
2023/01/21 01:36:10;;;;;;;13.53;6.75;;;;;;;0.27;99.31;100266.54;1741231;82;27312;-44
2023/01/21 01:38:38;;;;;;;8.85;6.22;;;;;;;0.23;99.58;100264.09;1741176;82;25707;-45
2023/01/21 01:41:07;;;;;;;10.48;6.62;;;;;;;0.21;99.77;100255.02;1741281;82;25459;-45
2023/01/21 01:44:03;;;;;;;9.03;5.83;;;;;;;0.21;99.93;100250.23;1741242;82;26206;-44
2023/01/21 01:46:36;;;;;;;10.90;6.22;;;;;;;0.17;100.00;100247.22;1713990;82;25572;-44
2023/01/21 01:49:15;;;;;;;11.12;6.37;;;;;;;0.13;100.00;100238.91;1741164;81;26545;-49
2023/01/21 01:51:57;;;;;;;11.33;5.87;;;;;;;0.13;100.00;100235.45;1741427;82;26114;-47
2023/01/21 01:54:35;;;;;;;9.75;5.70;;;;;;;0.10;100.00;100218.64;1741285;82;25629;-48
2023/01/21 01:57:06;;;;;;;7.87;5.53;;;;;;;0.08;100.00;100208.78;1740192;82;25609;-45
2023/01/21 01:59:35;;;;;;;10.13;5.78;;;;;;;0.04;100.00;100212.98;1741368;82;25439;-46
2023/01/21 02:02:17;;;;;;;8.33;6.05;;;;;;;0.03;100.00;100204.70;1741360;81;27990;-46
2023/01/21 02:04:55;;;;;;;9.55;5.37;;;;;;;0.03;100.00;100202.05;1741203;82;25566;-47
2023/01/21 02:07:26;;;;;;;6.55;5.33;;;;;;;0.00;100.00;100192.71;1740060;82;25408;-46
2023/01/21 02:09:55;;;;;;;7.58;5.60;;;;;;;-0.02;100.00;100176.99;1741241;82;26350;-47
2023/01/21 02:12:22;;;;;;;5.75;4.08;;;;;;;-0.04;100.00;100172.95;1741361;82;25575;-47
2023/01/21 02:14:51;;;;;;;8.83;5.75;;;;;;;-0.05;100.00;100166.00;1713586;82;27431;-46
2023/01/21 02:18:01;;;;;;;7.40;5.20;;;;;;;-0.07;100.00;100158.80;1741412;82;25672;-50
2023/01/21 02:21:02;;;;;;;8.83;5.37;;;;;;;-0.07;100.00;100162.78;1713589;82;25463;-47
2023/01/21 02:24:02;;;;;;;8.33;5.30;;;;;;;-0.10;100.00;100160.10;1740592;82;25582;-48
2023/01/21 02:26:50;;;;;;;8.78;6.33;;;;;;;-0.12;100.00;100156.05;1741299;82;25517;-48
2023/01/21 02:29:49;;;;;;;8.83;5.40;;;;;;;-0.13;100.00;100151.80;1741346;82;28024;-46
2023/01/21 02:32:54;;;;;;;7.47;5.53;;;;;;;-0.16;100.00;100148.30;1714056;82;25825;-45
2023/01/21 02:35:29;;;;;;;9.65;5.37;;;;;;;-0.16;100.00;100144.30;1741193;82;25561;-46
2023/01/21 02:38:05;;;;;;;9.10;5.22;;;;;;;-0.16;100.00;100146.96;1741304;82;27878;-48
2023/01/21 02:41:08;;;;;;;7.45;5.08;;;;;;;-0.17;100.00;100145.34;1741448;82;25454;-46
2023/01/21 02:44:07;;;;;;;9.48;5.40;;;;;;;-0.18;100.00;100145.08;1732948;81;27410;-45
2023/01/21 02:46:44;;;;;;;7.45;5.05;;;;;;;-0.17;100.00;100133.38;1741400;82;25553;-44
2023/01/21 02:49:48;;;;;;;6.17;4.67;;;;;;;-0.18;100.00;100132.58;1722779;83;25796;-46
2023/01/21 02:52:24;;;;;;;7.42;5.12;;;;;;;-0.20;100.00;100124.05;1766843;81;25750;-45
2023/01/21 02:54:56;;;;;;;6.65;4.95;;;;;;;-0.20;100.00;100129.36;1764568;81;25497;-45
2023/01/21 02:57:42;;;;;;;6.70;4.78;;;;;;;-0.20;100.00;100130.16;1736348;82;27457;-45
2023/01/21 03:00:21;;;;;;;9.18;5.25;;;;;;;-0.19;100.00;100121.66;1741276;81;25673;-45
2023/01/21 03:03:16;;;;;;;7.12;5.22;;;;;;;-0.19;100.00;100121.66;1764454;81;25419;-45
2023/01/21 03:06:32;;;;;;;8.00;5.22;;;;;;;-0.18;100.00;100121.15;1764442;81;25619;-43
2023/01/21 03:09:06;;;;;;;6.65;4.80;;;;;;;-0.20;100.00;100111.55;1764435;81;25479;-43
2023/01/21 03:11:34;;;;;;;9.05;5.10;;;;;;;-0.21;100.00;100099.30;1763863;81;27354;-43
2023/01/21 03:17:02;;;;;;;6.97;5.15;;;;;;;-0.21;100.00;100095.84;1764436;81;25560;-44
2023/01/21 03:19:46;;;;;;;7.00;5.15;;;;;;;-0.20;100.00;100078.85;1766831;81;26378;-43
2023/01/21 03:22:17;;;;;;;6.90;5.15;;;;;;;-0.20;100.00;100078.85;1766890;81;25686;-45
2023/01/21 03:24:49;;;;;;;7.12;5.15;;;;;;;-0.20;100.00;100078.85;1766895;81;28091;-44
2023/01/21 03:27:20;;;;;;;8.83;5.70;;;;;;;-0.18;100.00;100073.30;1764951;81;25665;-44
2023/01/21 03:29:51;;;;;;;6.20;5.08;;;;;;;-0.20;100.00;100067.69;1752547;81;25535;-44
2023/01/21 03:32:21;;;;;;;7.42;5.55;;;;;;;-0.18;100.00;100072.77;1752536;81;26254;-44
2023/01/21 03:34:50;;;;;;;;;;;;;;;-0.18;100.00;100079.94;1755126;81;25706;-44
2023/01/21 03:37:29;;;;;;;;;;;;;;;-0.18;100.00;100082.06;1755097;81;27423;-43
2023/01/21 03:40:17;;;;;;;7.12;4.90;;;;;;;-0.20;100.00;100081.51;1751698;81;25827;-43
2023/01/21 03:42:49;;;;;;;5.58;4.50;;;;;;;-0.21;100.00;100083.88;1752761;81;25594;-44
2023/01/21 03:45:21;;;;;;;7.33;4.40;;;;;;;-0.20;100.00;100075.66;1752515;81;25622;-44
2023/01/21 03:47:52;;;;;;;5.60;3.77;;;;;;;-0.21;100.00;100069.25;1753675;81;25415;-43
2023/01/21 03:50:33;;;;;;;4.72;3.85;;;;;;;-0.21;100.00;100064.73;1759707;81;27426;-43
2023/01/21 03:53:01;;;;;;;5.20;4.10;;;;;;;-0.22;100.00;100059.16;1759963;81;25566;-44
2023/01/21 03:55:27;;;;;;;4.22;3.58;;;;;;;-0.21;100.00;100054.63;1759980;81;25564;-44
2023/01/21 03:57:53;;;;;;;4.55;3.20;;;;;;;-0.18;100.00;100050.70;1759932;81;25613;-45
2023/01/21 04:00:21;;;;;;;4.22;3.45;;;;;;;-0.20;100.00;100062.37;1760037;81;25484;-45
2023/01/21 04:02:47;;;;;;;3.83;3.40;;;;;;;-0.19;100.00;100059.17;1756601;81;27323;-45
2023/01/21 04:05:14;;;;;;;5.78;3.67;;;;;;;-0.18;100.00;100063.45;1760065;81;25793;-47
2023/01/21 04:07:41;;;;;;;5.35;3.58;;;;;;;-0.18;100.00;100054.16;1759996;81;25629;-48
2023/01/21 04:10:10;;;;;;;3.47;3.10;;;;;;;-0.17;100.00;100060.27;1759948;81;25657;-48
2023/01/21 04:12:38;;;;;;;5.05;3.60;;;;;;;-0.17;100.00;100057.10;1733335;82;25416;-46
2023/01/21 04:15:07;;;;;;;3.72;3.30;;;;;;;-0.18;100.00;100048.83;1733223;82;27434;-44
2023/01/21 04:17:33;;;;;;;3.00;2.45;;;;;;;-0.16;100.00;100058.70;1734623;82;25626;-44
2023/01/21 04:19:59;;;;;;;3.77;2.90;;;;;;;-0.16;100.00;100062.69;1733184;82;25628;-44
2023/01/21 04:22:25;;;;;;;2.30;2.10;;;;;;;-0.15;100.00;100060.82;1733119;82;35180;-44
2023/01/21 04:24:52;;;;;;;4.33;2.75;;;;;;;-0.16;100.00;100060.56;1759962;81;25432;-44
2023/01/21 04:27:18;;;;;;;3.98;3.05;;;;;;;-0.16;100.00;100066.67;1759963;81;27426;-44
2023/01/21 04:29:44;;;;;;;2.20;1.82;;;;;;;-0.16;100.00;100081.30;1759891;80;25560;-44
2023/01/21 04:32:10;;;;;;;1.80;1.70;;;;;;;-0.16;100.00;100071.19;1759936;81;25499;-44
2023/01/21 04:34:36;;;;;;;2.17;1.95;;;;;;;-0.15;100.00;100070.13;1759929;81;26277;-45
2023/01/21 04:37:02;;;;;;;1.98;1.55;;;;;;;-0.14;100.00;100078.39;1735983;81;25591;-45
2023/01/21 04:39:28;;;;;;;2.37;1.80;;;;;;;-0.14;100.00;100076.53;1759913;81;27284;-45
2023/01/21 04:41:54;;;;;;;1.85;1.42;;;;;;;-0.13;100.00;100074.70;1759833;81;25585;-45
2023/01/21 04:44:21;;;;;;;1.47;1.32;;;;;;;-0.12;100.00;100077.63;1759905;81;25554;-44
2023/01/21 04:46:47;;;;;;;1.47;1.20;;;;;;;-0.13;100.00;100075.50;1759920;81;25624;-46
2023/01/21 04:49:13;;;;;;;2.45;1.80;;;;;;;-0.12;100.00;100073.13;1735275;81;25529;-45
2023/01/21 04:51:39;;;;;;;1.60;1.35;;;;;;;-0.13;100.00;100064.86;1757491;81;27323;-47
2023/01/21 04:54:09;;;;;;;2.52;1.40;;;;;;;-0.12;100.00;100056.35;1736002;81;25598;-48
2023/01/21 04:56:37;;;;;;;2.90;1.50;;;;;;;-0.12;100.00;100058.51;1757550;81;25447;-47
2023/01/21 04:59:05;;;;;;;1.42;1.20;;;;;;;-0.10;100.00;100067.04;1736280;81;27825;-44
2023/01/21 05:01:31;;;;;;;2.75;1.37;;;;;;;-0.10;100.00;100063.55;1757496;81;25621;-44
2023/01/21 05:03:58;;;;;;;1.40;1.30;;;;;;;-0.09;100.00;100059.86;1757523;81;27229;-43
2023/01/21 05:06:25;;;;;;;1.72;1.37;;;;;;;-0.10;100.00;100065.71;1757409;81;25712;-44
2023/01/21 05:08:51;;;;;;;1.22;1.12;;;;;;;-0.08;100.00;100064.94;1712383;82;25534;-43
2023/01/21 05:11:19;;;;;;;1.37;1.12;;;;;;;-0.09;100.00;100067.30;1733351;82;25585;-44
2023/01/21 05:13:45;;;;;;;1.57;1.17;;;;;;;-0.08;100.00;100060.15;1733409;82;25646;-44
2023/01/21 05:16:13;;;;;;;1.35;0.95;;;;;;;-0.07;100.00;100063.08;1733463;82;27441;-43
2023/01/21 05:18:41;;;;;;;1.75;1.50;;;;;;;-0.07;100.00;100059.09;1757432;81;25464;-43
2023/01/21 05:21:08;;;;;;;2.17;1.22;;;;;;;-0.09;100.00;100056.67;1757486;81;25451;-43
2023/01/21 05:23:34;;;;;;;2.15;1.72;;;;;;;-0.08;100.00;100050.84;1757461;81;26227;-43
2023/01/21 05:26:00;;;;;;;2.35;1.80;;;;;;;-0.07;100.00;100051.11;1757535;81;25467;-45
2023/01/21 05:28:27;;;;;;;1.65;1.15;;;;;;;-0.08;100.00;100044.99;1757470;81;27340;-46
2023/01/21 05:30:53;;;;;;;2.58;1.60;;;;;;;-0.07;100.00;100061.74;1733313;82;25899;-44
2023/01/21 05:33:24;;;;;;;3.10;1.57;;;;;;;-0.08;100.00;100058.29;1733353;82;25602;-47
2023/01/21 05:35:47;;;;;;;2.40;1.85;;;;;;;-0.07;100.00;100064.41;1732738;82;25629;-44
2023/01/21 05:38:15;;;;;;;1.52;1.17;;;;;;;-0.06;100.00;100062.03;1733439;82;32243;-46
2023/01/21 05:40:41;;;;;;;2.10;1.70;;;;;;;-0.06;100.00;100065.49;1733365;82;27331;-45
2023/01/21 05:43:07;;;;;;;4.62;1.70;;;;;;;-0.07;100.00;100057.25;1733282;82;25595;-45
2023/01/21 05:45:33;;;;;;;4.37;2.30;;;;;;;-0.06;100.00;100060.17;1733411;82;25557;-45
2023/01/21 05:47:59;;;;;;;2.40;1.72;;;;;;;-0.10;100.00;100051.59;1733268;82;25568;-45
2023/01/21 05:50:25;;;;;;;2.25;1.80;;;;;;;-0.07;100.00;100061.23;1710198;82;25364;-44
2023/01/21 05:52:51;;;;;;;3.10;1.77;;;;;;;-0.04;100.00;100055.94;1709592;83;27416;-46
2023/01/21 05:55:18;;;;;;;2.52;2.12;;;;;;;-0.05;100.00;100059.14;1709510;83;25397;-44
2023/01/21 05:57:44;;;;;;;1.80;1.67;;;;;;;-0.05;100.00;100064.95;1709600;83;25623;-45
2023/01/21 06:00:13;;;;;;;2.50;1.95;;;;;;;-0.05;100.00;100067.11;1709589;83;34700;-45
2023/01/21 06:02:39;;;;;;;1.55;1.45;;;;;;;-0.05;100.00;100072.94;1709816;83;25629;-44
2023/01/21 06:05:09;;;;;;;2.17;1.70;;;;;;;-0.03;100.00;100074.84;1709618;83;27361;-45
2023/01/21 06:07:35;;;;;;;3.83;1.25;;;;;;;-0.03;100.00;100065.01;1706077;84;25672;-45
2023/01/21 06:10:03;;;;;;;2.10;1.77;;;;;;;-0.04;100.00;100066.58;1709572;83;25573;-45
2023/01/21 06:12:30;;;;;;;3.00;1.57;;;;;;;-0.06;100.00;100070.81;1709601;83;25609;-48
2023/01/21 06:14:56;;;;;;;3.33;1.70;;;;;;;-0.04;100.00;100072.69;1709837;83;25445;-48
2023/01/21 06:17:22;;;;;;;4.85;2.33;;;;;;;-0.05;100.00;100071.10;1709759;83;27327;-46
2023/01/21 06:19:48;;;;;;;4.95;2.47;;;;;;;-0.04;100.00;100078.02;1709709;83;25671;-45
2023/01/21 06:22:16;;;;;;;6.87;2.87;;;;;;;-0.04;100.00;100070.03;1709758;83;25618;-46
2023/01/21 06:24:44;;;;;;;4.75;2.77;;;;;;;-0.04;100.00;100077.22;1709677;83;25661;-48
2023/01/21 06:27:12;;;;;;;5.33;2.50;;;;;;;-0.04;100.00;100077.22;1709745;83;25478;-45
2023/01/21 06:29:38;;;;;;;8.98;3.75;;;;;;;-0.05;100.00;100079.08;1708226;84;27395;-46
2023/01/21 06:32:07;;;;;;;4.08;2.22;;;;;;;-0.04;100.00;100081.20;1703372;82;25721;-47
2023/01/21 06:34:33;;;;;;;;;;;;;;;-0.04;100.00;100089.98;1729324;83;25458;-45
2023/01/21 06:36:59;;;;;;;2.65;1.80;;;;;;;-0.05;100.00;100083.07;1698999;84;34652;-45
2023/01/21 06:39:26;;;;;;;7.22;2.85;;;;;;;-0.04;100.00;100085.98;1726764;83;25623;-45
2023/01/21 06:41:52;;;;;;;3.08;1.42;;;;;;;-0.05;100.00;100085.73;1708685;84;27396;-44
2023/01/21 06:44:18;;;;;;;2.37;1.47;;;;;;;-0.05;100.00;100084.40;1708658;84;25562;-45
2023/01/21 06:46:44;;;;;;;4.17;2.02;;;;;;;-0.03;100.00;100086.28;1708707;83;25709;-44
2023/01/21 06:49:10;;;;;;;5.08;2.20;;;;;;;-0.04;100.00;100086.52;1721925;81;25641;-46
2023/01/21 06:51:36;;;;;;;9.13;3.58;;;;;;;-0.04;100.00;100085.98;1752476;81;25586;-44
2023/01/21 06:54:04;;;;;;;4.22;2.62;;;;;;;-0.03;100.00;100090.80;1752522;81;27388;-43
2023/01/21 06:56:31;;;;;;;3.22;2.02;;;;;;;-0.05;100.00;100087.05;1752603;81;25712;-41
2023/01/21 06:58:57;;;;;;;1.75;1.42;;;;;;;-0.04;100.00;100091.84;1752664;81;25389;-42
2023/01/21 07:01:24;;;;;;;2.60;1.30;;;;;;;-0.06;100.00;100094.74;1752583;81;25627;-43
2023/01/21 07:03:50;;;;;;;1.87;1.45;;;;;;;-0.05;100.00;100098.20;1752546;81;25449;-42
2023/01/21 07:06:20;;;;;;;2.52;1.30;;;;;;;-0.07;100.00;100093.15;1752661;81;27388;-41
2023/01/21 07:08:47;;;;;;;4.15;1.92;;;;;;;-0.07;100.00;100090.48;1752667;81;25735;-41
2023/01/21 07:11:14;;;;;;;2.33;1.60;;;;;;;-0.06;100.00;100100.59;1752714;81;25185;-43
2023/01/21 07:13:40;;;;;;;2.80;1.82;;;;;;;-0.05;100.00;100096.87;1752594;81;26321;-44
2023/01/21 07:16:07;;;;;;;4.30;1.80;;;;;;;-0.06;100.00;100093.95;1752729;81;25608;-43
2023/01/21 07:18:33;;;;;;;2.80;1.87;;;;;;;-0.06;100.00;100098.73;1731298;81;27393;-43
2023/01/21 07:21:00;;;;;;;1.45;0.98;;;;;;;-0.06;100.00;100098.73;1752415;81;25788;-41
2023/01/21 07:23:26;;;;;;;1.35;0.90;;;;;;;-0.06;100.00;100084.11;1752470;81;25599;-41
2023/01/21 07:25:53;;;;;;;1.30;0.95;;;;;;;-0.06;100.00;100093.41;1752465;81;26181;-44
2023/01/21 07:28:19;;;;;;;1.72;1.30;;;;;;;-0.04;100.00;100097.95;1752537;81;25221;-41
2023/01/21 07:30:46;;;;;;;1.30;0.98;;;;;;;-0.04;100.00;100095.30;1752457;81;27345;-42
2023/01/21 07:33:12;;;;;;;2.17;1.55;;;;;;;-0.02;100.00;100096.39;1752445;81;25685;-42
2023/01/21 07:35:39;;;;;;;4.25;1.70;;;;;;;-0.02;100.00;100089.73;1752535;81;25432;-42
2023/01/21 07:38:05;;;;;;;6.33;2.52;;;;;;;0.00;100.00;100094.31;1731032;81;26196;-43
2023/01/21 07:40:32;;;;;;;1.98;1.77;;;;;;;0.01;100.00;100095.91;1752562;81;25404;-42
2023/01/21 07:42:59;;;;;;;2.30;1.67;;;;;;;0.02;100.00;100097.53;1733197;82;27417;-42
2023/01/21 07:45:25;;;;;;;2.80;2.15;;;;;;;0.04;100.00;100095.95;1733133;82;25756;-43
2023/01/21 07:47:52;;;;;;;3.20;2.00;;;;;;;0.05;100.00;100093.56;1733173;82;25448;-42
2023/01/21 07:50:18;;;;;;;1.80;1.30;;;;;;;0.05;100.00;100086.91;1757175;81;25964;-43
2023/01/21 07:52:45;;;;;;;1.35;1.22;;;;;;;0.07;100.00;100095.45;1760152;81;25411;-42
2023/01/21 07:55:12;;;;;;;2.00;1.45;;;;;;;0.09;100.00;100092.05;1759956;81;29516;-42
2023/01/21 07:57:39;;;;;;;2.00;1.20;;;;;;;0.11;100.00;100097.92;1736128;81;25524;-44
2023/01/21 08:00:08;;;;;;;1.40;1.30;;;;;;;0.10;100.00;100104.27;1760020;81;25633;-43
2023/01/21 08:02:35;;;;;;;2.08;1.50;;;;;;;0.13;100.00;100101.13;1761675;81;25643;-42
2023/01/21 08:05:03;;;;;;;2.45;1.65;;;;;;;0.12;100.00;100094.19;1736031;81;25649;-43
2023/01/21 08:07:29;;;;;;;2.17;1.57;;;;;;;0.13;100.00;100096.61;1760052;81;27458;-42
2023/01/21 08:09:56;;;;;;;1.87;1.57;;;;;;;0.14;100.00;100092.91;1759933;81;25707;-42
2023/01/21 08:12:23;;;;;;;1.75;1.62;;;;;;;0.16;100.00;100093.47;1760008;80;25584;-43
2023/01/21 08:14:50;;;;;;;2.08;1.65;;;;;;;0.18;100.00;100101.20;1759952;81;25678;-43
2023/01/21 08:17:17;;;;;;;1.92;1.37;;;;;;;0.21;100.00;100110.56;1760003;81;25440;-45
2023/01/21 08:19:43;;;;;;;3.30;2.00;;;;;;;0.21;100.00;100104.71;1760000;81;27448;-44
2023/01/21 08:22:10;;;;;;;3.40;2.05;;;;;;;0.24;100.00;100116.70;1759872;81;25573;-42
2023/01/21 08:24:36;;;;;;;4.25;1.85;;;;;;;0.23;100.00;100106.59;1759986;80;25586;-43
2023/01/21 08:27:03;;;;;;;4.40;1.67;;;;;;;0.24;100.00;100108.72;1759968;81;25602;-43
2023/01/21 08:29:33;;;;;;;2.30;1.80;;;;;;;0.24;100.00;100111.38;1759980;81;25486;-41
2023/01/21 08:31:59;;;;;;;3.72;2.55;;;;;;;0.23;100.00;100110.59;1759990;80;27166;-41
2023/01/21 08:34:28;;;;;;;3.08;1.95;;;;;;;0.26;100.00;100119.95;1759904;81;25669;-42
2023/01/21 08:36:56;;;;;;;4.12;2.58;;;;;;;0.27;100.00;100118.88;1756450;81;25649;-42
2023/01/21 08:39:22;;;;;;;3.50;2.65;;;;;;;0.30;100.00;100122.39;1759891;81;25859;-44
2023/01/21 08:41:49;;;;;;;2.98;2.00;;;;;;;0.29;100.00;100126.91;1759956;81;25580;-42
2023/01/21 08:44:18;;;;;;;2.15;1.72;;;;;;;0.32;100.00;100132.25;1759952;81;27417;-41
2023/01/21 08:46:44;;;;;;;2.20;2.00;;;;;;;0.35;100.00;100135.23;1760051;81;25850;-44
2023/01/21 08:49:12;;;;;;;2.62;1.60;;;;;;;0.35;100.00;100135.23;1759144;80;25680;-42
2023/01/21 08:51:38;;;;;;;2.90;2.27;;;;;;;0.37;100.00;100131.00;1741280;82;26437;-43
2023/01/21 08:54:08;;;;;;;5.70;2.72;;;;;;;0.38;100.00;100133.95;1741278;81;25537;-41
2023/01/21 08:56:36;;;;;;;;;;;;;;;0.38;100.00;100131.83;1743875;82;27904;-41
2023/01/21 08:59:02;;;;;;;2.90;1.82;;;;;;;0.38;100.00;100141.93;1740979;82;25635;-42
2023/01/21 09:01:28;;;;;;;7.45;3.10;;;;;;;0.36;100.00;100144.83;1740785;82;25460;-43
2023/01/21 09:03:58;;;;;;;4.15;3.00;;;;;;;0.36;100.00;100143.50;1741201;81;25844;-45
2023/01/21 09:06:28;;;;;;;3.12;2.65;;;;;;;0.36;100.00;100147.50;1741311;82;25635;-44
2023/01/21 09:08:57;;;;;;;4.55;2.30;;;;;;;0.38;100.00;100147.25;1741044;82;27737;-43
2023/01/21 09:11:28;;;;;;;4.37;3.45;;;;;;;0.39;100.00;100150.71;1740297;82;25635;-44
2023/01/21 09:13:59;;;;;;;3.52;2.83;;;;;;;0.38;100.00;100146.45;1741346;82;25589;-42
2023/01/21 09:16:22;;;;;;;4.22;3.08;;;;;;;0.38;100.00;100144.59;1740158;82;25665;-42
2023/01/21 09:18:51;;;;;;;9.08;4.22;;;;;;;0.38;100.00;100156.57;1741262;82;25370;-41
2023/01/21 09:21:17;;;;;;;5.95;3.87;;;;;;;0.37;100.00;100158.94;1741228;82;29519;-43
2023/01/21 09:23:45;;;;;;;5.55;3.75;;;;;;;0.35;100.00;100156.52;1741170;82;25444;-42
2023/01/21 09:26:21;;;;;;;6.80;3.35;;;;;;;0.37;100.00;100158.94;1741241;82;25603;-43
2023/01/21 09:28:57;;;;;;;3.70;2.85;;;;;;;0.39;100.00;100162.16;1741256;82;25703;-41
2023/01/21 09:31:27;;;;;;;4.42;2.90;;;;;;;0.39;100.00;100160.02;1741317;82;25582;-41
2023/01/21 09:33:58;;;;;;;5.87;4.12;;;;;;;0.40;100.00;100157.66;1741258;82;27381;-41
2023/01/21 09:36:30;;;;;;;4.67;3.47;;;;;;;0.39;100.00;100164.02;1741148;82;25389;-42
2023/01/21 09:39:00;;;;;;;8.30;4.15;;;;;;;0.42;100.00;100171.52;1741032;82;25485;-43
2023/01/21 09:41:52;;;;;;;3.05;2.75;;;;;;;0.42;100.00;100171.52;1741391;82;25583;-42
2023/01/21 09:44:33;;;;;;;3.90;3.25;;;;;;;0.43;100.00;100161.16;1741381;82;25397;-41
2023/01/21 09:47:32;;;;;;;4.10;2.70;;;;;;;0.43;100.00;100178.47;1713091;82;28315;-41
2023/01/21 09:50:19;;;;;;;3.65;3.15;;;;;;;0.42;100.00;100176.30;1737700;81;25573;-41
2023/01/21 09:52:53;;;;;;;4.28;2.87;;;;;;;0.44;100.00;100178.19;1730496;82;25413;-40
2023/01/21 09:55:40;;;;;;;4.42;2.98;;;;;;;0.44;100.00;100176.86;1730514;82;25658;-40
2023/01/21 09:58:33;;;;;;;4.60;3.60;;;;;;;0.46;100.00;100176.62;1730560;82;25530;-43
2023/01/21 10:01:12;;;;;;;4.70;3.20;;;;;;;0.47;100.00;100184.36;1729864;82;27332;-41
2023/01/21 10:03:56;;;;;;;6.75;3.55;;;;;;;0.48;100.00;100181.99;1730555;82;25663;-42
2023/01/21 10:06:47;;;;;;;5.33;3.47;;;;;;;0.50;100.00;100187.88;1642297;87;25702;-42
2023/01/21 10:09:40;;;;;;;9.45;3.85;;;;;;;0.52;100.00;100198.27;1642313;87;25704;-42
2023/01/21 10:12:20;;;;;;;5.65;4.10;;;;;;;0.53;100.00;100194.58;1642185;87;25656;-42
2023/01/21 10:15:35;;;;;;;6.17;4.10;;;;;;;0.52;100.00;100188.42;1642083;87;27422;-42
2023/01/21 10:18:12;;;;;;;4.62;3.67;;;;;;;0.55;100.00;100189.81;1642075;87;25577;-43
2023/01/21 10:20:52;;;;;;;7.65;4.62;;;;;;;0.58;100.00;100203.14;1641466;87;25698;-41
2023/01/21 10:23:29;;;;;;;6.47;3.72;;;;;;;0.59;100.00;100197.58;1642108;87;25633;-43
2023/01/21 10:26:01;;;;;;;5.95;4.60;;;;;;;0.61;100.00;100197.33;1642022;87;25479;-43
2023/01/21 10:28:29;;;;;;;9.58;5.92;;;;;;;0.63;100.00;100185.41;1642136;87;27494;-44
2023/01/21 10:31:10;;;;;;;7.08;4.70;;;;;;;0.65;100.00;100188.63;1642049;87;25611;-42
2023/01/21 10:33:38;;;;;;;8.60;5.17;;;;;;;0.66;100.00;100194.20;1641566;87;25467;-45
2023/01/21 10:36:25;;;;;;;16.67;9.38;;;;;;;0.65;100.00;100203.80;1642090;87;27825;-42
2023/01/21 10:39:28;;;;;;;11.65;6.45;;;;;;;0.64;100.00;100204.30;1642258;87;25649;-43
2023/01/21 10:41:59;;;;;;;10.05;6.22;;;;;;;0.63;100.00;100197.88;1669149;82;27422;-44
2023/01/21 10:44:55;;;;;;;11.65;6.78;;;;;;;0.63;100.00;100205.88;1728715;82;25601;-41
2023/01/21 10:47:48;;;;;;;13.15;6.78;;;;;;;0.63;100.00;100219.19;1730518;82;25375;-43
2023/01/21 10:50:43;;;;;;;9.75;7.22;;;;;;;0.62;100.00;100222.91;1730425;81;25799;-43
2023/01/21 10:53:24;;;;;;;9.45;5.50;;;;;;;0.62;100.00;100221.05;1730020;82;25435;-45
2023/01/21 10:56:14;;;;;;;9.63;5.90;;;;;;;0.63;100.00;100220.52;1726905;82;27459;-42
2023/01/21 10:59:12;;;;;;;11.63;7.15;;;;;;;0.65;100.00;100229.08;1729182;82;25531;-42
2023/01/21 11:01:44;;;;;;;9.90;6.47;;;;;;;0.65;100.00;100224.55;1730530;82;25421;-42
2023/01/21 11:04:21;;;;;;;10.78;6.80;;;;;;;0.66;100.00;100229.34;1730609;82;26274;-43
2023/01/21 11:07:05;;;;;;;14.93;7.47;;;;;;;0.66;100.00;100232.02;1729867;82;25563;-42
2023/01/21 11:09:37;;;;;;;15.58;8.00;;;;;;;0.68;100.00;100224.58;1730571;82;27448;-42
2023/01/21 11:12:09;;;;;;;15.48;8.23;;;;;;;0.67;100.00;100237.09;1730574;82;25595;-42
2023/01/21 11:14:36;;;;;;;14.23;7.83;;;;;;;0.69;100.00;100242.18;1730651;82;25546;-43
2023/01/21 11:17:06;;;;;;;13.62;8.10;;;;;;;0.69;100.00;100239.52;1730538;82;25612;-41
2023/01/21 11:19:34;;;;;;;13.90;8.50;;;;;;;0.69;100.00;100235.52;1730530;82;25550;-42
2023/01/21 11:22:17;;;;;;;16.12;8.78;;;;;;;0.72;100.00;100243.02;1685871;83;27408;-41
2023/01/21 11:24:48;;;;;;;12.40;7.35;;;;;;;0.72;100.00;100251.81;1728361;83;25657;-42
2023/01/21 11:27:23;;;;;;;13.60;8.78;;;;;;;0.73;100.00;100251.27;1699874;84;25474;-41
2023/01/21 11:29:50;;;;;;;16.07;9.28;;;;;;;0.71;100.00;100249.39;1707380;83;25624;-41
2023/01/21 11:32:24;;;;;;;14.93;8.55;;;;;;;0.72;100.00;100260.33;1706557;83;25487;-40
2023/01/21 11:35:17;;;;;;;15.78;8.50;;;;;;;0.72;100.00;100262.99;1699875;84;27318;-40
2023/01/21 11:37:47;;;;;;;16.30;8.60;;;;;;;0.71;100.00;100257.37;1672947;85;25637;-41
2023/01/21 11:40:24;;;;;;;17.55;9.45;;;;;;;0.71;100.00;100264.03;1673213;85;25648;-39
2023/01/21 11:42:56;;;;;;;26.97;10.45;;;;;;;0.70;100.00;100260.58;1673127;85;25627;-40
2023/01/21 11:45:35;;;;;;;17.95;10.48;;;;;;;0.73;100.00;100263.25;1673141;85;25478;-40
2023/01/21 11:48:15;;;;;;;15.23;10.40;;;;;;;0.75;100.00;100266.50;1673385;85;27343;-40